createdAt,value
2022-10-11T00:00:11.667Z,13.90
2022-10-11T00:03:41.478Z,13.60
2022-10-11T00:06:51.527Z,11.90
2022-10-11T00:09:58.591Z,15.30
2022-10-11T00:13:05.578Z,12.60
2022-10-11T00:16:15.660Z,12.30
2022-10-11T00:19:22.533Z,11.00
2022-10-11T00:22:32.543Z,11.80
2022-10-11T00:25:39.609Z,11.70
2022-10-11T00:28:46.710Z,11.00
2022-10-11T00:31:57.623Z,14.20
2022-10-11T00:35:04.602Z,12.80
2022-10-11T00:38:11.711Z,11.90
2022-10-11T00:41:21.606Z,13.30
2022-10-11T00:44:28.580Z,10.80
2022-10-11T00:47:35.638Z,13.80
2022-10-11T00:50:42.656Z,10.00
2022-10-11T00:53:49.665Z,10.40
2022-10-11T00:56:56.678Z,13.20
2022-10-11T01:00:03.657Z,13.10
2022-10-11T01:03:10.688Z,11.60
2022-10-11T01:06:17.724Z,12.20
2022-10-11T01:09:24.691Z,10.90
2022-10-11T01:12:31.690Z,13.50
2022-10-11T01:15:38.716Z,10.60
2022-10-11T01:18:48.698Z,9.30
2022-10-11T01:25:13.741Z,10.60
2022-10-11T01:28:23.821Z,11.20
2022-10-11T01:31:33.706Z,10.30
2022-10-11T01:34:41.749Z,11.70
2022-10-11T01:37:51.749Z,11.00
2022-10-11T01:40:58.788Z,12.80
2022-10-11T01:44:05.792Z,9.50
2022-10-11T01:47:15.767Z,9.40
2022-10-11T01:50:22.893Z,11.30
2022-10-11T01:53:32.787Z,11.10
2022-10-11T01:56:42.810Z,10.50
2022-10-11T01:59:49.821Z,10.30
2022-10-11T02:02:59.858Z,11.60
2022-10-11T02:06:07.007Z,9.60
2022-10-11T02:09:14.928Z,10.00
2022-10-11T02:12:24.852Z,8.90
2022-10-11T02:15:31.829Z,11.70
2022-10-11T02:18:38.862Z,12.20
2022-10-11T02:21:48.875Z,10.70
2022-10-11T02:24:56.899Z,9.30
2022-10-11T02:28:03.898Z,11.80
2022-10-11T02:31:10.878Z,9.80
2022-10-11T02:34:17.884Z,10.80
2022-10-11T02:37:24.923Z,10.20
2022-10-11T02:40:31.858Z,9.70
2022-10-11T02:43:41.919Z,10.20
2022-10-11T02:46:48.928Z,10.80
2022-10-11T02:49:55.974Z,9.80
2022-10-11T02:53:06.065Z,10.70
2022-10-11T02:56:13.969Z,9.40
2022-10-11T02:59:20.922Z,10.80
2022-10-11T03:02:27.972Z,11.30
2022-10-11T03:05:34.945Z,8.80
2022-10-11T03:08:44.977Z,9.00
2022-10-11T03:11:51.958Z,11.00
2022-10-11T03:15:02.029Z,9.30
2022-10-11T03:18:09.041Z,10.10
2022-10-11T03:21:16.045Z,7.40
2022-10-11T03:24:23.058Z,8.70
2022-10-11T03:27:33.135Z,10.80
2022-10-11T03:30:43.032Z,10.50
2022-10-11T03:33:50.124Z,14.40
2022-10-11T03:36:57.050Z,7.80
2022-10-11T03:40:07.048Z,9.80
2022-10-11T03:43:14.060Z,10.90
2022-10-11T03:46:21.051Z,10.40
2022-10-11T03:49:29.174Z,8.80
2022-10-11T03:52:36.099Z,9.40
2022-10-11T03:55:43.082Z,10.50
2022-10-11T03:58:50.126Z,9.10
2022-10-11T04:02:03.200Z,16.50
2022-10-11T04:05:14.116Z,9.10
2022-10-11T04:08:21.191Z,9.40
2022-10-11T04:11:33.131Z,13.50
2022-10-11T04:14:52.249Z,11.90
2022-10-11T04:18:03.317Z,12.00
2022-10-11T04:21:10.218Z,9.40
2022-10-11T04:24:17.204Z,12.70
2022-10-11T04:27:24.192Z,9.40
2022-10-11T04:30:34.210Z,11.10
2022-10-11T04:33:42.166Z,8.50
2022-10-11T04:36:50.115Z,11.60
2022-10-11T04:39:57.268Z,9.70
2022-10-11T04:43:04.317Z,10.70
2022-10-11T04:46:16.197Z,14.30
2022-10-11T04:49:23.290Z,13.00
2022-10-11T04:52:33.226Z,11.20
2022-10-11T04:55:40.256Z,13.70
2022-10-11T04:58:47.286Z,15.60
2022-10-11T05:01:54.349Z,12.20
2022-10-11T05:05:04.318Z,11.90
2022-10-11T05:08:11.324Z,11.20
2022-10-11T05:11:18.389Z,17.10
2022-10-11T05:14:31.274Z,11.70
2022-10-11T05:17:38.366Z,14.00
2022-10-11T05:20:45.445Z,11.20
2022-10-11T05:23:56.453Z,9.50
2022-10-11T05:27:06.502Z,10.60
2022-10-11T05:30:16.388Z,13.70
2022-10-11T05:33:26.368Z,21.80
2022-10-11T05:36:33.368Z,9.50
2022-10-11T05:39:43.460Z,10.80
2022-10-11T05:42:50.486Z,11.70
2022-10-11T05:45:57.391Z,9.90
2022-10-11T05:49:07.373Z,12.30
2022-10-11T05:52:18.034Z,12.00
2022-10-11T05:55:25.410Z,9.50
2022-10-11T05:58:32.408Z,12.00
2022-10-11T06:01:39.506Z,10.40
2022-10-11T06:04:52.379Z,14.80
2022-10-11T06:07:59.458Z,10.40
2022-10-11T06:11:12.465Z,13.20
2022-10-11T06:14:22.625Z,10.40
2022-10-11T06:17:30.475Z,12.30
2022-10-11T06:20:40.466Z,11.00
2022-10-11T06:23:47.506Z,10.90
2022-10-11T06:26:54.575Z,14.00
2022-10-11T06:30:04.569Z,13.10
2022-10-11T06:33:14.495Z,14.40
2022-10-11T06:36:21.499Z,14.00
2022-10-11T06:39:28.470Z,11.00
2022-10-11T06:42:38.499Z,18.80
2022-10-11T06:45:48.556Z,9.60
2022-10-11T06:48:58.608Z,12.20
2022-10-11T06:52:08.509Z,11.70
2022-10-11T06:55:18.627Z,14.10
2022-10-11T06:58:25.588Z,14.20
2022-10-11T07:01:32.688Z,12.90
2022-10-11T07:04:40.658Z,13.10
2022-10-11T07:07:51.597Z,10.60
2022-10-11T07:14:18.585Z,10.80
2022-10-11T07:17:25.588Z,9.00
2022-10-11T07:20:35.667Z,20.20
2022-10-11T07:23:52.678Z,12.60
2022-10-11T07:26:59.609Z,13.00
2022-10-11T07:30:06.786Z,11.20
2022-10-11T07:33:19.844Z,8.90
2022-10-11T07:36:32.752Z,12.80
2022-10-11T07:39:46.698Z,12.30
2022-10-11T07:42:55.723Z,8.00
2022-10-11T07:46:05.277Z,8.10
2022-10-11T07:49:15.768Z,7.20
2022-10-11T07:52:28.785Z,8.90
2022-10-11T07:55:38.773Z,7.20
2022-10-11T07:58:51.718Z,4.90
2022-10-11T08:02:01.821Z,9.40
2022-10-11T08:05:09.771Z,7.70
2022-10-11T08:08:16.712Z,6.30
2022-10-11T08:11:26.885Z,8.00
2022-10-11T08:14:35.883Z,5.00
2022-10-11T08:17:42.811Z,7.20
2022-10-11T08:20:52.760Z,9.20
2022-10-11T08:23:59.765Z,7.80
2022-10-11T08:27:16.647Z,5.90
2022-10-11T08:30:27.567Z,10.30
2022-10-11T08:33:44.977Z,5.60
2022-10-11T08:45:05.882Z,9.30
2022-10-11T08:48:20.039Z,8.60
2022-10-11T08:51:37.513Z,7.60
2022-10-11T08:54:57.751Z,8.70
2022-10-11T08:58:06.050Z,7.20
2022-10-11T09:01:15.015Z,7.40
2022-10-11T09:04:28.583Z,10.70
2022-10-11T09:07:57.451Z,5.30
2022-10-11T09:11:10.973Z,5.90
2022-10-11T09:14:17.902Z,6.30
2022-10-11T09:17:29.035Z,7.40
2022-10-11T09:20:35.946Z,5.60
2022-10-11T09:23:42.947Z,7.20
2022-10-11T09:26:52.960Z,9.20
2022-10-11T09:29:59.949Z,7.90
2022-10-11T09:33:08.942Z,10.50
2022-10-11T09:36:16.062Z,9.90
2022-10-11T09:39:24.232Z,9.40
2022-10-11T09:42:35.070Z,7.40
2022-10-11T09:45:44.596Z,5.40
2022-10-11T09:48:56.101Z,7.60
2022-10-11T09:52:07.009Z,5.80
2022-10-11T09:55:17.622Z,7.50
2022-10-11T09:58:27.093Z,10.60
2022-10-11T10:01:34.172Z,6.80
2022-10-11T10:04:41.032Z,7.50
2022-10-11T10:07:48.181Z,7.10
2022-10-11T10:11:01.018Z,5.20
2022-10-11T10:14:11.156Z,4.40
2022-10-11T10:17:24.015Z,6.80
2022-10-11T10:20:40.087Z,4.30
2022-10-11T10:23:57.058Z,4.40
2022-10-11T10:27:04.089Z,7.10
2022-10-11T10:30:14.142Z,5.50
2022-10-11T10:33:25.317Z,6.50
2022-10-11T10:36:33.117Z,8.40
2022-10-11T10:39:40.155Z,6.10
2022-10-11T10:42:50.155Z,6.00
2022-10-11T10:46:00.330Z,9.90
2022-10-11T10:49:34.857Z,6.00
2022-10-11T10:52:40.191Z,10.90
2022-10-11T10:55:56.224Z,5.40
2022-10-11T10:59:06.155Z,8.60
2022-10-11T11:02:39.032Z,9.30
2022-10-11T11:05:44.230Z,9.20
2022-10-11T11:08:57.419Z,7.40
2022-10-11T11:12:22.102Z,12.60
2022-10-11T11:15:37.994Z,8.40
2022-10-11T11:18:50.321Z,6.50
2022-10-11T11:21:59.401Z,7.70
2022-10-11T11:25:14.394Z,12.10
2022-10-11T11:28:21.353Z,7.00
2022-10-11T11:31:38.673Z,5.20
2022-10-11T11:35:05.495Z,7.10
2022-10-11T11:38:15.436Z,7.60
2022-10-11T11:41:26.339Z,5.40
2022-10-11T11:44:36.362Z,10.70
2022-10-11T11:47:46.406Z,10.50
2022-10-11T11:50:56.383Z,8.60
2022-10-11T11:54:03.301Z,10.70
2022-10-11T11:57:12.284Z,11.20
2022-10-11T12:00:18.372Z,7.20
2022-10-11T12:03:25.340Z,5.40
2022-10-11T12:06:52.472Z,7.10
2022-10-11T12:10:08.390Z,6.00
2022-10-11T12:13:18.432Z,7.50
2022-10-11T12:16:25.420Z,8.30
2022-10-11T12:19:33.902Z,7.30
2022-10-11T12:22:41.524Z,5.80
2022-10-11T12:25:48.426Z,7.60
2022-10-11T12:28:55.478Z,5.60
2022-10-11T12:32:03.476Z,5.80
2022-10-11T12:35:11.545Z,6.10
2022-10-11T12:38:43.449Z,10.00
2022-10-11T12:41:52.453Z,6.20
2022-10-11T12:45:05.471Z,8.30
2022-10-11T12:48:15.419Z,8.20
2022-10-11T12:51:25.571Z,15.10
2022-10-11T12:54:36.885Z,5.10
2022-10-11T12:58:01.632Z,9.00
2022-10-11T13:01:17.687Z,8.90
2022-10-11T13:04:34.470Z,8.00
2022-10-11T13:07:41.673Z,5.20
2022-10-11T13:10:55.253Z,9.90
2022-10-11T13:14:07.587Z,6.80
2022-10-11T13:17:18.544Z,5.70
2022-10-11T13:20:25.619Z,7.60
2022-10-11T13:23:32.925Z,7.30
2022-10-11T13:26:40.555Z,8.60
2022-10-11T13:29:50.749Z,6.50
2022-10-11T13:36:28.571Z,9.00
2022-10-11T13:39:38.607Z,7.60
2022-10-11T13:42:49.523Z,6.60
2022-10-11T13:46:09.131Z,8.30
2022-10-11T13:49:23.596Z,10.00
2022-10-11T13:52:33.719Z,7.60
2022-10-11T13:55:43.688Z,6.10
2022-10-11T13:58:51.699Z,7.50
2022-10-11T14:01:59.760Z,11.50
2022-10-11T14:05:09.656Z,8.70
2022-10-11T14:08:19.661Z,7.90
2022-10-11T14:11:26.669Z,8.30
2022-10-11T14:14:33.657Z,9.00
2022-10-11T14:17:40.671Z,8.00
2022-10-11T14:20:53.685Z,5.50
2022-10-11T14:24:01.589Z,7.90
2022-10-11T14:27:08.791Z,7.60
2022-10-11T14:30:25.606Z,6.80
2022-10-11T14:33:33.920Z,8.20
2022-10-11T14:36:48.768Z,8.60
2022-10-11T14:39:58.698Z,9.60
2022-10-11T14:43:05.761Z,9.30
2022-10-11T14:46:15.829Z,13.80
2022-10-11T14:49:25.888Z,7.90
2022-10-11T14:52:39.751Z,12.90
2022-10-11T14:55:49.754Z,8.50
2022-10-11T14:58:59.785Z,8.70
2022-10-11T15:02:09.746Z,10.90
2022-10-11T15:05:16.799Z,11.70
2022-10-11T15:08:23.888Z,8.40
2022-10-11T15:11:39.998Z,8.60
2022-10-11T15:14:46.812Z,8.00
2022-10-11T15:17:54.886Z,8.30
2022-10-11T15:21:01.795Z,12.00
2022-10-11T15:24:12.787Z,9.80
2022-10-11T15:27:22.936Z,8.70
2022-10-11T15:30:37.099Z,9.70
2022-10-11T15:33:50.917Z,9.30
2022-10-11T15:36:58.907Z,10.70
2022-10-11T15:40:05.879Z,9.50
2022-10-11T15:43:12.836Z,13.70
2022-10-11T15:46:25.923Z,9.30
2022-10-11T15:49:35.894Z,10.90
2022-10-11T15:52:42.977Z,9.90
2022-10-11T15:55:52.924Z,8.40
2022-10-11T15:59:02.958Z,9.70
2022-10-11T16:02:24.007Z,12.80
2022-10-11T16:05:31.930Z,9.30
2022-10-11T16:08:41.910Z,11.90
2022-10-11T16:11:49.090Z,14.20
2022-10-11T16:14:59.066Z,9.60
2022-10-11T16:18:06.019Z,10.70
2022-10-11T16:21:16.054Z,13.10
2022-10-11T16:24:30.010Z,13.90
2022-10-11T16:27:37.016Z,13.70
2022-10-11T16:30:47.045Z,13.30
2022-10-11T16:34:07.388Z,10.20
2022-10-11T16:37:20.066Z,11.90
2022-10-11T16:40:30.042Z,16.60
2022-10-11T16:43:40.032Z,24.30
2022-10-11T16:46:54.060Z,26.40
2022-10-11T16:50:09.100Z,28.10
2022-10-11T16:53:16.178Z,21.20
2022-10-11T16:56:26.018Z,22.80
2022-10-11T16:59:33.054Z,18.10
2022-10-11T17:02:40.046Z,22.60
2022-10-11T17:05:48.532Z,26.00
2022-10-11T17:08:58.228Z,22.20
2022-10-11T17:12:05.058Z,28.40
2022-10-11T17:15:12.165Z,25.00
2022-10-11T17:18:19.122Z,26.70
2022-10-11T17:21:29.150Z,23.90
2022-10-11T17:24:39.168Z,23.30
2022-10-11T17:27:49.159Z,22.30
2022-10-11T17:30:58.151Z,20.80
2022-10-11T17:34:11.099Z,17.60
2022-10-11T17:37:19.281Z,23.30
2022-10-11T17:40:30.178Z,20.50
2022-10-11T17:43:37.230Z,18.40
2022-10-11T17:46:47.163Z,19.60
2022-10-11T17:49:57.197Z,24.40
2022-10-11T17:53:04.135Z,26.50
2022-10-11T17:56:16.264Z,27.60
2022-10-11T17:59:23.399Z,30.80
2022-10-11T18:02:31.201Z,32.20
2022-10-11T18:05:38.212Z,31.80
2022-10-11T18:08:48.280Z,28.00
2022-10-11T18:11:59.316Z,28.80
2022-10-11T18:15:12.394Z,30.10
2022-10-11T18:18:20.264Z,31.40
2022-10-11T18:21:34.284Z,27.80
2022-10-11T18:24:46.236Z,24.90
2022-10-11T18:27:53.525Z,22.90
2022-10-11T18:31:01.296Z,25.30
2022-10-11T18:34:08.303Z,23.00
2022-10-11T18:37:18.290Z,22.40
2022-10-11T18:40:27.340Z,21.60
2022-10-11T18:43:34.428Z,28.30
2022-10-11T18:46:41.288Z,23.40
2022-10-11T18:49:51.443Z,23.20
2022-10-11T18:52:59.408Z,27.90
2022-10-11T18:56:09.670Z,22.70
2022-10-11T18:59:17.312Z,24.30
2022-10-11T19:02:27.383Z,27.10
2022-10-11T19:05:34.426Z,27.00
2022-10-11T19:08:44.398Z,29.00
2022-10-11T19:11:54.397Z,26.00
2022-10-11T19:15:01.407Z,26.40
2022-10-11T19:18:11.397Z,29.60
2022-10-11T19:21:21.614Z,28.90
2022-10-11T19:24:29.400Z,28.40
2022-10-11T19:27:36.501Z,26.50
2022-10-11T19:30:43.427Z,31.30
2022-10-11T19:33:50.604Z,32.20
2022-10-11T19:36:58.460Z,29.90
2022-10-11T19:40:05.476Z,30.10
2022-10-11T19:43:15.445Z,38.80
2022-10-11T19:49:53.445Z,29.10
2022-10-11T19:53:00.533Z,31.50
2022-10-11T19:56:07.542Z,31.40
2022-10-11T19:59:14.507Z,32.30
2022-10-11T20:02:24.523Z,30.00
2022-10-11T20:05:34.637Z,32.10
2022-10-11T20:08:44.650Z,30.90
2022-10-11T20:11:52.522Z,32.60
2022-10-11T20:14:59.526Z,31.30
2022-10-11T20:18:06.551Z,31.00
2022-10-11T20:21:13.673Z,30.60
2022-10-11T20:24:21.542Z,28.00
2022-10-11T20:27:31.880Z,22.30
2022-10-11T20:30:39.556Z,20.40
2022-10-11T20:33:46.634Z,25.70
2022-10-11T20:36:53.612Z,25.80
2022-10-11T20:40:00.579Z,27.50
2022-10-11T20:43:07.594Z,22.60
2022-10-11T20:46:17.613Z,24.70
2022-10-11T20:49:27.654Z,25.40
2022-10-11T20:52:40.644Z,24.20
2022-10-11T20:55:50.663Z,26.40
2022-10-11T20:59:09.020Z,24.80
2022-10-11T21:02:19.641Z,23.30
2022-10-11T21:05:25.719Z,21.20
2022-10-11T21:08:35.656Z,25.20
2022-10-11T21:11:45.648Z,24.50
2022-10-11T21:14:54.787Z,25.40
2022-10-11T21:18:13.704Z,25.90
2022-10-11T21:21:23.691Z,27.00
2022-10-11T21:24:30.742Z,24.20
2022-10-11T21:27:40.709Z,23.40
2022-10-11T21:30:50.671Z,24.50
2022-10-11T21:33:57.698Z,24.90
2022-10-11T21:37:04.763Z,22.90
2022-10-11T21:40:11.744Z,21.10
2022-10-11T21:43:21.768Z,21.60
2022-10-11T21:46:54.144Z,22.10
2022-10-11T21:49:58.744Z,22.00
2022-10-11T21:53:09.931Z,21.40
2022-10-11T21:56:17.842Z,19.20
2022-10-11T21:59:28.661Z,18.60
2022-10-11T22:02:35.996Z,17.20
2022-10-11T22:05:43.773Z,15.80
2022-10-11T22:08:53.740Z,16.50
2022-10-11T22:12:04.852Z,16.20
2022-10-11T22:15:11.834Z,17.60
2022-10-11T22:18:21.847Z,20.40
2022-10-11T22:21:28.931Z,18.80
2022-10-11T22:24:35.847Z,20.60
2022-10-11T22:27:42.877Z,17.60
2022-10-11T22:30:52.869Z,16.60
2022-10-11T22:33:59.950Z,16.60
2022-10-11T22:37:09.968Z,16.90
2022-10-11T22:40:19.860Z,15.50
2022-10-11T22:43:29.905Z,18.90
2022-10-11T22:46:40.944Z,17.50
2022-10-11T22:49:50.995Z,15.30
2022-10-11T22:52:58.967Z,17.00
2022-10-11T22:56:05.924Z,21.80
2022-10-11T22:59:15.985Z,17.10
2022-10-11T23:02:22.965Z,15.70
2022-10-11T23:05:29.996Z,16.30
2022-10-11T23:08:37.053Z,15.50
2022-10-11T23:11:46.994Z,16.10
2022-10-11T23:14:53.979Z,16.40
2022-10-11T23:18:01.980Z,15.60
2022-10-11T23:21:12.128Z,17.50
2022-10-11T23:24:20.100Z,16.10
2022-10-11T23:27:30.033Z,16.70
2022-10-11T23:30:37.061Z,16.90
2022-10-11T23:33:47.002Z,17.40
2022-10-11T23:36:57.095Z,16.60
2022-10-11T23:40:04.014Z,17.10
2022-10-11T23:43:11.098Z,16.40
2022-10-11T23:46:25.039Z,15.80
2022-10-11T23:49:32.089Z,18.80
2022-10-11T23:52:42.074Z,17.50
2022-10-11T23:55:49.160Z,20.80
2022-10-11T23:58:59.064Z,16.50
